Warning: Javascript must be enabled to use all the features on this page!


Page Loading - Please Wait...

Click to hideNews Bulletins

Peak Streamflow for the Nation

USGS 11150500 SALINAS R NR BRADLEY CA

Monterey County, California
Hydrologic Unit Code 18060005
Latitude  35°55'49", Longitude 120°52'04" NAD27
Drainage area 2,535  square miles
Gage datum 445.82 feet above NAVD88
Output formats
Table
Graph
Tab-separated file
peakfq (watstore) format
Reselect output format
Water
Year
Date Gage
Height
(feet)
Stream-
flow
(cfs)
1949 1949-03-03 10.79 15,200
1950 1950-02-06 10.66 15,500
1951 1950-11-19 10.18 12,800
1952 1952-01-15 12.35 26,800
1953 1952-12-07 9.73 14,500
1954 1954-02-14 8.77 8,690
1955 1955-01-18 7.76 5,330
1956 1955-12-24 12.01 25,000
1957 1957-02-25 5.58 1,8406
1958 1958-04-03 12.53 28,4006
1959 1959-02-25 6.58 2,9106
1960 1960-02-02 5.30 9406
1961 1961-06-21   4841,6
1962 1962-02-10 9.78 11,7006
1963 1963-02-01 9.87 12,2006
1964 1964-01-31 4.61 7086
1965 1965-01-07 7.42 4,7206
1966 1966-01-01 5.63 1,0106
1967 1966-12-07 16.20 34,0006
1968 1967-12-07 5.79 1,0706
1969 1969-02-24 20.34 117,0006
1970 1970-01-17 8.07 4,6406
1971 1971-03-05 7.20 2,3806
1972 1972-08-08 6.22 9266
1973 1973-02-11   16,0006
1974 1974-01-07 10.10 8,8006
1975 1975-02-10 10.40 7,0006
1976 1976-08-02 6.96 6646
1977 1977-08-05 7.09 6976
1978 1978-02-10 18.68 70,6006
1979 1979-02-24 8.33 2,5106
1980 1980-02-19 13.55 28,0006
1981 1981-03-27 8.23 3,4206
1982 1982-04-11 12.20 12,6006
1983 1983-01-27 15.28 31,6006
1984 1983-12-28 8.47 4,0506
1985 1985-04-29 5.73 7876
1986 1986-03-16 11.89 12,0006
1987 1987-08-15 5.40 7076
1988 1988-08-11 5.72 6866
1989 1989-08-25 5.94 9746
1990 1990-01-14 3.58 30.06
1991 1991-03-19 10.81 9,7706
1992 1992-02-15 11.17 10,8006
1993 1993-01-14 14.42 23,2001,6
1994 1994-06-12 6.28 1,3906
1995 1995-03-11 23.44 120,0006
1996 1996-02-22 8.62 7,0806
1997 1997-01-27 12.61 18,7006
1998 1998-02-08 14.34 26,9006
1999 1999-02-10 6.05 1,8906
2000 2000-02-24   7,0002,6
2001 2001-03-05 12.48 18,2006
2002 2001-11-17 4.95 8476
2003 2003-03-16 5.99 1,6606
2004 2004-02-26 5.18 8876
2005 2004-12-31 12.22 17,5006
2006 2006-04-05 11.87 13,9006
2007 2006-11-05 5.41 1,2606
2008 2008-01-28 6.78 2,6906
2009 2008-11-17 5.25 1,2406
2010 2010-01-22 8.05 4,3206
2011 2011-03-27 12.50 16,0006
2012 2012-04-14 4.59 7446
2013 2013-07-16 4.82 8346
2014 2013-10-02 4.26 5166
2015 2015-09-04 3.89 2216
2016 2016-03-15 3.472 1686
2017 2017-02-08 13.30 14,3006
2018 2018-03-23 9.54 5,7206
2019 2019-03-07 8.77 4,3306
2020 2020-08-26 4.802 7216
2021 2021-01-29 4.88 7846
2022 2021-12-30 4.89 8106
?
  Peak Gage-Height Qualification Codes.
?
  Peak Streamflow Qualification Codes.